Terminal Aerodrome Forecast
Issued by NWS

Home | Current Version | Previous Version | Text Only | Print | Product List | Glossary On
Versions: 1 2 3 4 5 6 7 8 9 10 11 12 13 14 15 16 17 18 19 20 21 22 23 24 25 26 27 28 29 30 31 32 33
000
FTUS46 KSGX 220824 AAA
TAFSAN
TAF AMD
KSAN 220824Z 2208/2312 VRB02KT P6SM BKN014
     FM221530 VRB04KT P6SM SCT020
     FM221900 30010KT P6SM SKC
     FM230300 VRB04KT P6SM SCT015
     FM230800 VRB02KT P6SM BKN015=

USA.gov is the U.S. government's official web portal to all federal, state and local government web resources and services.